Time;durP1;ratioP1;P1;durP2;ratioP2;P2;SDS_P1;SDS_P2;PMS_P1;PMS_P2;Temp;Humidity;BMP_temperature;BMP_pressure;BME280_temperature;BME280_humidity;BME280_pressure;Samples;Min_cycle;Max_cycle;Signal;HPM_P1;HPM_P2
2021/05/16 00:02:27;;;;;;;2.53;2.33;;;;;;;9.70;100.00;99867.09;6233958;28;20105;-78
2021/05/16 00:05:31;;;;;;;3.90;2.28;;;;;;;9.69;100.00;99868.06;6232324;28;20414;-78
2021/05/16 00:08:32;;;;;;;2.75;2.28;;;;;;;9.69;100.00;99868.06;6233053;28;20065;-79
2021/05/16 00:11:33;;;;;;;2.78;1.98;;;;;;;9.69;100.00;99862.81;6232921;28;20046;-79
2021/05/16 00:14:35;;;;;;;7.85;2.42;;;;;;;9.69;100.00;99860.19;6232403;28;20052;-78
2021/05/16 00:17:35;;;;;;;2.75;1.90;;;;;;;9.69;100.00;99854.09;6233152;28;20053;-77
2021/05/16 00:20:37;;;;;;;2.42;1.98;;;;;;;9.71;100.00;99863.53;6232586;28;20077;-78
2021/05/16 00:23:38;;;;;;;2.70;2.03;;;;;;;9.74;100.00;99854.63;6232671;28;20101;-79
2021/05/16 00:26:39;;;;;;;8.13;2.42;;;;;;;9.70;100.00;99868.88;6232801;28;20050;-79
2021/05/16 00:29:40;;;;;;;2.28;2.08;;;;;;;9.73;100.00;99859.03;6232714;28;20050;-78
2021/05/16 00:32:41;;;;;;;5.45;2.78;;;;;;;9.77;100.00;99859.69;6232419;28;20069;-78
2021/05/16 00:35:43;;;;;;;3.30;2.30;;;;;;;9.81;100.00;99853.28;6232426;28;20058;-78
2021/05/16 00:38:44;;;;;;;2.88;2.22;;;;;;;9.75;100.00;99864.19;6232404;28;20494;-78
2021/05/16 00:41:44;;;;;;;4.90;2.25;;;;;;;9.74;100.00;99854.63;6232500;28;20054;-78
2021/05/16 00:45:04;;;;;;;4.88;2.20;;;;;;;9.73;100.00;99856.41;6232672;28;20045;-79
2021/05/16 00:48:07;;;;;;;3.50;2.28;;;;;;;9.77;100.00;99857.91;6233168;28;20083;-78
2021/05/16 00:51:10;;;;;;;3.85;2.30;;;;;;;9.69;100.00;99856.72;6233437;28;20089;-78
2021/05/16 00:54:11;;;;;;;4.00;2.47;;;;;;;9.71;100.00;99849.56;6231961;28;20077;-78
2021/05/16 00:57:12;;;;;;;5.82;2.45;;;;;;;9.74;100.00;99854.63;6233053;28;20489;-79
2021/05/16 01:00:15;;;;;;;5.13;2.20;;;;;;;9.73;100.00;99851.19;6232982;28;20196;-79
2021/05/16 01:03:16;;;;;;;3.88;2.20;;;;;;;9.73;100.00;99856.41;6232266;28;20061;-78
2021/05/16 01:06:18;;;;;;;4.65;2.40;;;;;;;9.71;100.00;99855.66;6232136;28;20057;-79
2021/05/16 01:09:19;;;;;;;6.28;2.30;;;;;;;9.68;100.00;99857.66;6232596;28;20069;-78
2021/05/16 01:12:20;;;;;;;3.60;2.30;;;;;;;9.69;100.00;99848.84;6232244;28;20049;-79
2021/05/16 01:15:22;;;;;;;3.15;2.38;;;;;;;9.67;100.00;99859.41;6232048;28;20129;-78
2021/05/16 01:18:24;;;;;;;4.18;2.83;;;;;;;9.66;100.00;99849.88;6232022;28;20498;-79
2021/05/16 01:21:26;;;;;;;2.70;2.25;;;;;;;9.69;100.00;99856.72;6231991;28;20112;-78
2021/05/16 01:24:27;;;;;;;3.50;2.45;;;;;;;9.71;100.00;99855.66;6232278;28;20049;-78
2021/05/16 01:27:28;;;;;;;3.45;2.40;;;;;;;9.73;100.00;99855.59;6231475;28;20049;-78
2021/05/16 01:30:29;;;;;;;4.22;2.47;;;;;;;9.78;100.00;99853.50;6232754;28;20104;-79
2021/05/16 01:33:31;;;;;;;5.68;2.70;;;;;;;9.74;100.00;99847.59;6233702;28;20049;-79
2021/05/16 01:36:34;;;;;;;3.47;2.75;;;;;;;9.72;100.00;99851.25;6234500;28;20701;-79
2021/05/16 01:39:35;;;;;;;2.78;2.47;;;;;;;9.72;100.00;99854.75;6233094;28;20088;-79
2021/05/16 01:42:39;;;;;;;6.40;2.92;;;;;;;9.74;100.00;99860.72;6233464;28;20050;-80
2021/05/16 01:45:41;;;;;;;5.35;3.10;;;;;;;9.72;100.00;99862.63;6234172;28;20064;-79
2021/05/16 01:48:42;;;;;;;4.90;3.08;;;;;;;9.72;100.00;99862.63;6234127;28;20046;-79
2021/05/16 01:51:44;;;;;;;4.70;2.90;;;;;;;9.78;100.00;99862.22;6233222;28;20064;-79
2021/05/16 01:54:46;;;;;;;6.30;3.40;;;;;;;9.75;100.00;99862.41;6232468;28;20057;-78
2021/05/16 01:57:48;;;;;;;3.58;2.80;;;;;;;9.76;100.00;99856.22;6233187;28;20387;-79
2021/05/16 02:00:49;;;;;;;4.35;2.42;;;;;;;9.75;100.00;99856.31;6232625;28;20469;-79
2021/05/16 02:03:51;;;;;;;7.18;3.10;;;;;;;9.78;100.00;99867.47;6232247;28;20046;-79
2021/05/16 02:06:53;;;;;;;7.03;2.65;;;;;;;9.76;100.00;99861.44;6231521;28;20053;-79
2021/05/16 02:09:54;;;;;;;8.57;4.30;;;;;;;9.75;100.00;99853.69;6233098;28;20595;-79
2021/05/16 02:12:55;;;;;;;4.82;3.10;;;;;;;9.75;100.00;99851.06;6233380;28;20042;-79
2021/05/16 02:15:56;;;;;;;5.10;3.30;;;;;;;9.82;100.00;99852.38;6232665;28;20563;-79
2021/05/16 02:18:56;;;;;;;10.25;3.30;;;;;;;9.77;100.00;99849.22;6232872;28;20118;-79
2021/05/16 02:21:58;;;;;;;8.10;3.10;;;;;;;9.71;100.00;99852.19;6231976;28;20082;-79
2021/05/16 02:24:59;;;;;;;4.75;3.03;;;;;;;9.71;100.00;99858.28;6232039;28;20096;-79
2021/05/16 02:28:00;;;;;;;3.50;2.95;;;;;;;9.77;100.00;99854.44;6232560;28;20050;-78
2021/05/16 02:31:13;;;;;;;6.07;3.30;;;;;;;9.66;100.00;99855.97;6231606;28;20180;-79
2021/05/16 02:34:14;;;;;;;5.05;3.47;;;;;;;9.67;100.00;99856.78;6232611;28;20054;-79
2021/05/16 02:37:15;;;;;;;6.28;3.03;;;;;;;9.74;100.00;99857.25;6233066;28;20141;-79
2021/05/16 02:40:17;;;;;;;6.07;3.38;;;;;;;9.75;100.00;99861.56;6231471;28;20050;-78
2021/05/16 02:43:18;;;;;;;7.30;3.47;;;;;;;9.74;100.00;99860.72;6230868;28;20426;-79
2021/05/16 02:46:19;;;;;;;6.38;3.30;;;;;;;9.72;100.00;99860.00;6230957;28;20050;-79
2021/05/16 02:49:19;;;;;;;10.27;3.88;;;;;;;9.73;100.00;99856.41;6230754;28;20050;-79
2021/05/16 02:52:21;;;;;;;5.97;3.55;;;;;;;9.71;100.00;99855.66;6230225;28;20065;-78
2021/05/16 02:55:22;;;;;;;7.72;3.50;;;;;;;9.86;100.00;99840.75;6229806;28;20063;-78
2021/05/16 02:58:24;;;;;;;19.02;4.13;;;;;;;9.72;100.00;99859.13;6228930;28;20050;-79
2021/05/16 03:01:25;;;;;;;10.35;4.53;;;;;;;9.65;100.00;99863.94;6231235;28;20053;-79
2021/05/16 03:04:25;;;;;;;11.68;4.60;;;;;;;9.65;100.00;99853.44;6230662;28;20046;-79
2021/05/16 03:07:27;;;;;;;10.05;4.60;;;;;;;9.66;100.00;99855.13;6231018;28;20053;-79
2021/05/16 03:10:28;;;;;;;13.80;4.97;;;;;;;9.60;100.00;99855.53;6231430;28;20487;-78
2021/05/16 03:13:29;;;;;;;12.93;5.03;;;;;;;9.62;100.00;99851.84;6230923;28;20133;-78
2021/05/16 03:16:30;;;;;;;9.82;4.22;;;;;;;9.61;100.00;99868.53;6231147;28;20065;-79
2021/05/16 03:19:32;;;;;;;10.45;5.10;;;;;;;9.68;100.00;99860.28;6231220;28;20053;-79
2021/05/16 03:22:34;;;;;;;8.07;4.93;;;;;;;9.63;100.00;99868.44;6230492;28;20418;-79
2021/05/16 03:25:36;;;;;;;9.43;4.03;;;;;;;9.63;100.00;99868.44;6231544;28;20072;-79
2021/05/16 03:28:37;;;;;;;7.57;4.90;;;;;;;9.59;100.00;99866.97;6231378;28;20422;-79
2021/05/16 03:31:39;;;;;;;8.60;4.70;;;;;;;9.61;100.00;99870.31;6247821;28;20054;-79
2021/05/16 03:34:40;;;;;;;9.38;4.65;;;;;;;9.55;100.00;99866.31;6252757;28;20045;-78
2021/05/16 03:37:41;;;;;;;11.15;5.60;;;;;;;9.53;100.00;99876.03;6254919;28;20204;-78
2021/05/16 03:40:43;;;;;;;10.65;6.35;;;;;;;9.55;100.00;99881.19;6255103;28;20641;-79
2021/05/16 03:43:45;;;;;;;15.70;7.82;;;;;;;9.57;100.00;99871.44;6255096;28;20045;-79
2021/05/16 03:46:46;;;;;;;17.77;8.27;;;;;;;9.62;100.00;99864.97;6253684;28;20049;-79
2021/05/16 03:49:46;;;;;;;16.92;9.15;;;;;;;9.58;100.00;99867.88;6254397;28;20152;-78
2021/05/16 03:52:48;;;;;;;18.02;10.70;;;;;;;9.58;100.00;99868.75;6254184;28;20495;-78
2021/05/16 03:55:49;;;;;;;25.73;13.52;;;;;;;9.52;100.00;99866.50;6253760;28;20061;-79
2021/05/16 03:58:50;;;;;;;25.90;13.38;;;;;;;9.55;100.00;99875.97;6253901;28;20041;-79
2021/05/16 04:01:51;;;;;;;29.80;14.82;;;;;;;9.50;100.00;99884.13;6254381;28;20068;-79
2021/05/16 04:04:53;;;;;;;24.17;14.32;;;;;;;9.49;100.00;99879.78;6253799;28;20087;-79
2021/05/16 04:07:55;;;;;;;29.23;15.90;;;;;;;9.52;100.00;99890.09;6253733;28;20049;-79
2021/05/16 04:10:56;;;;;;;31.92;17.83;;;;;;;9.61;100.00;99883.44;6252939;28;20057;-77
2021/05/16 04:13:57;;;;;;;28.13;15.27;;;;;;;9.59;100.00;99883.53;6253377;28;20041;-79
2021/05/16 04:16:58;;;;;;;27.15;15.00;;;;;;;9.55;100.00;99884.66;6255393;28;20041;-79
2021/05/16 04:19:59;;;;;;;28.05;14.25;;;;;;;9.61;100.00;99886.88;6257428;28;20537;-79
2021/05/16 04:23:00;;;;;;;23.33;13.55;;;;;;;9.61;100.00;99886.88;6256931;28;20050;-78
2021/05/16 04:26:01;;;;;;;26.75;13.52;;;;;;;9.60;100.00;99885.22;6257593;28;20060;-78
2021/05/16 04:29:03;;;;;;;27.60;15.68;;;;;;;9.60;100.00;99887.84;6257612;28;20045;-78
2021/05/16 04:32:04;;;;;;;30.70;15.65;;;;;;;9.61;100.00;99892.13;6257814;28;20513;-79
2021/05/16 04:35:06;;;;;;;29.50;16.15;;;;;;;9.70;100.00;99892.50;6255743;28;20041;-78
2021/05/16 04:38:08;;;;;;;28.45;15.38;;;;;;;9.72;100.00;99896.72;6256383;28;20049;-79
2021/05/16 04:41:08;;;;;;;32.25;15.27;;;;;;;9.79;100.00;99894.53;6257195;28;20049;-78
2021/05/16 04:44:09;;;;;;;26.55;15.43;;;;;;;9.83;100.00;99896.88;6256682;28;20111;-79
2021/05/16 04:47:10;;;;;;;27.50;15.30;;;;;;;9.85;100.00;99889.72;6256373;28;20088;-78
2021/05/16 04:50:13;;;;;;;27.63;15.82;;;;;;;9.90;100.00;99894.69;6255511;28;20107;-79
2021/05/16 04:53:15;;;;;;;28.98;16.10;;;;;;;9.87;100.00;99902.78;6255704;28;20053;-78
2021/05/16 04:56:15;;;;;;;29.85;16.30;;;;;;;9.84;100.00;99902.97;6256175;28;20049;-79
2021/05/16 04:59:16;;;;;;;38.67;17.45;;;;;;;9.84;100.00;99898.53;6255993;28;20050;-78
2021/05/16 05:02:18;;;;;;;28.67;17.13;;;;;;;9.86;100.00;99908.97;6256571;28;20068;-78
2021/05/16 05:05:19;;;;;;;31.77;15.98;;;;;;;9.86;100.00;99901.09;6255156;28;20091;-79
2021/05/16 05:08:22;;;;;;;33.83;16.35;;;;;;;9.89;100.00;99904.34;6255267;28;20045;-79
2021/05/16 05:11:23;;;;;;;26.95;15.85;;;;;;;9.91;100.00;99907.72;6255291;28;20053;-78
2021/05/16 05:14:24;;;;;;;33.13;15.45;;;;;;;9.98;100.00;99907.31;6255131;28;20045;-78
2021/05/16 05:17:26;;;;;;;27.50;15.00;;;;;;;10.07;100.00;99904.09;6252664;28;20050;-78
2021/05/16 05:20:28;;;;;;;24.65;15.80;;;;;;;10.07;100.00;99907.56;6235970;28;20053;-78
2021/05/16 05:23:30;;;;;;;32.35;15.80;;;;;;;10.01;100.00;99912.38;6230884;28;20433;-79
2021/05/16 05:26:30;;;;;;;28.50;15.40;;;;;;;10.04;100.00;99902.53;6230733;28;20054;-78
2021/05/16 05:29:31;;;;;;;30.02;16.23;;;;;;;10.03;100.00;99903.44;6229166;28;20054;-78
2021/05/16 05:32:33;;;;;;;24.42;15.43;;;;;;;10.12;100.00;99900.22;6230336;28;20054;-78
2021/05/16 05:35:34;;;;;;;23.00;14.00;;;;;;;10.05;100.00;99909.47;6230188;28;20402;-78
2021/05/16 05:38:35;;;;;;;24.58;12.68;;;;;;;10.13;100.00;99917.69;6230241;28;20050;-78
2021/05/16 05:41:36;;;;;;;19.92;12.60;;;;;;;10.02;100.00;99908.81;6229389;28;20090;-79
2021/05/16 05:44:40;;;;;;;15.23;10.07;;;;;;;10.09;100.00;99912.75;6228858;28;20050;-78
2021/05/16 05:47:41;;;;;;;19.08;10.90;;;;;;;10.07;100.00;99907.56;6228430;28;20057;-78
2021/05/16 05:50:42;;;;;;;18.48;10.30;;;;;;;10.09;100.00;99910.13;6228583;28;20049;-78
2021/05/16 05:53:44;;;;;;;24.08;11.07;;;;;;;10.10;100.00;99914.41;6228590;28;20096;-79
2021/05/16 05:56:45;;;;;;;17.70;10.43;;;;;;;10.16;100.00;99914.84;6231352;28;20061;-78
2021/05/16 05:59:45;;;;;;;19.73;11.35;;;;;;;10.17;100.00;99905.19;6242672;28;20050;-78
2021/05/16 06:02:46;;;;;;;21.58;10.95;;;;;;;10.15;100.00;99909.69;6256530;28;20053;-78
2021/05/16 06:05:47;;;;;;;15.95;9.70;;;;;;;10.31;100.00;99905.19;6253995;28;20056;-78
2021/05/16 06:08:49;;;;;;;15.52;8.63;;;;;;;10.24;100.00;99905.63;6253833;28;20132;-78
2021/05/16 06:11:50;;;;;;;15.70;8.80;;;;;;;10.18;100.00;99917.41;6254458;28;20048;-78
2021/05/16 06:14:53;;;;;;;15.48;9.13;;;;;;;10.16;100.00;99909.59;6255027;28;20406;-79
2021/05/16 06:17:54;;;;;;;15.45;8.23;;;;;;;10.17;100.00;99915.69;6243438;28;20041;-79
2021/05/16 06:20:55;;;;;;;14.98;8.93;;;;;;;10.14;100.00;99908.03;6231237;28;20077;-78
2021/05/16 06:24:05;;;;;;;17.92;10.15;;;;;;;10.13;100.00;99912.44;6231355;28;20045;-78
2021/05/16 06:27:07;;;;;;;26.75;12.70;;;;;;;10.21;100.00;99919.78;6233055;28;20052;-79
2021/05/16 06:30:09;;;;;;;18.15;12.02;;;;;;;10.24;100.00;99911.75;6230962;28;20045;-79
2021/05/16 06:33:10;;;;;;;22.60;12.63;;;;;;;10.40;100.00;99911.59;6230375;28;20054;-79
2021/05/16 06:36:11;;;;;;;24.50;13.05;;;;;;;10.45;100.00;99920.03;6231501;28;20080;-80
2021/05/16 06:39:12;;;;;;;25.60;13.77;;;;;;;10.40;100.00;99917.72;6246394;28;20045;-78
2021/05/16 06:42:13;;;;;;;22.65;12.50;;;;;;;10.35;100.00;99916.31;6255022;28;20056;-79
2021/05/16 06:45:14;;;;;;;33.40;15.32;;;;;;;10.28;100.00;99923.75;6253700;28;20045;-78
2021/05/16 06:48:15;;;;;;;29.58;16.75;;;;;;;10.12;100.00;99923.84;6256714;28;20079;-79
2021/05/16 06:51:16;;;;;;;26.13;16.40;;;;;;;10.05;100.00;99930.47;6254497;28;20045;-78
2021/05/16 06:54:18;;;;;;;33.78;19.33;;;;;;;10.03;100.00;99924.44;6254342;28;20076;-79
2021/05/16 06:57:19;;;;;;;35.58;17.95;;;;;;;10.08;100.00;99926.78;6254352;28;20049;-78
2021/05/16 07:00:21;;;;;;;38.20;17.65;;;;;;;10.07;100.00;99938.22;6254298;28;20064;-79
2021/05/16 07:03:22;;;;;;;38.50;19.52;;;;;;;9.99;100.00;99937.88;6255576;28;20497;-80
2021/05/16 07:06:23;;;;;;;41.25;20.50;;;;;;;9.89;100.00;99933.22;6254098;28;20049;-79
2021/05/16 07:09:24;;;;;;;41.05;20.40;;;;;;;9.86;100.00;99930.81;6253667;28;20060;-79
2021/05/16 07:12:25;;;;;;;43.80;21.52;;;;;;;9.92;100.00;99926.94;6256611;28;20049;-79
2021/05/16 07:15:26;;;;;;;42.55;21.80;;;;;;;9.94;100.00;99932.06;6254765;28;20045;-79
2021/05/16 07:18:27;;;;;;;44.58;20.70;;;;;;;10.01;100.00;99930.75;6252599;28;20045;-79
2021/05/16 07:21:28;;;;;;;51.25;20.92;;;;;;;10.28;100.00;99925.53;6255018;28;20053;-79
2021/05/16 07:24:30;;;;;;;44.08;19.42;;;;;;;10.30;100.00;99926.25;6251753;28;20045;-79
2021/05/16 07:27:31;;;;;;;49.40;20.50;;;;;;;10.47;100.00;99922.53;6243919;28;20104;-79
2021/05/16 07:30:32;;;;;;;40.80;20.10;;;;;;;10.59;100.00;99927.00;6227873;28;20045;-79
2021/05/16 07:33:33;;;;;;;44.20;19.40;;;;;;;10.70;100.00;99928.91;6229094;28;20453;-79
2021/05/16 07:36:34;;;;;;;46.90;18.98;;;;;;;10.59;100.00;99921.75;6231322;28;20052;-79
2021/05/16 07:39:38;;;;;;;35.67;16.90;;;;;;;10.65;100.00;99926.56;6233414;28;20128;-79
2021/05/16 07:42:39;;;;;;;41.03;16.38;;;;;;;10.61;100.00;99932.97;6237613;28;20057;-78
2021/05/16 07:45:40;;;;;;;32.75;14.82;;;;;;;10.66;100.00;99928.25;6254967;28;20477;-78
2021/05/16 07:48:41;;;;;;;30.27;13.73;;;;;;;10.79;100.00;99925.66;6252069;28;20045;-79
2021/05/16 07:51:42;;;;;;;28.58;13.77;;;;;;;10.91;100.00;99928.28;6255191;28;20075;-79
2021/05/16 07:54:43;;;;;;;29.85;12.45;;;;;;;10.77;100.00;99932.81;6258868;28;20048;-80
2021/05/16 07:57:44;;;;;;;29.80;13.15;;;;;;;10.67;100.00;99937.81;6256939;28;20046;-76
2021/05/16 08:00:45;;;;;;;33.78;13.30;;;;;;;10.64;100.00;99940.66;6243269;28;20053;-79
2021/05/16 08:03:46;;;;;;;24.80;11.45;;;;;;;10.62;100.00;99932.03;6239120;28;20130;-79
2021/05/16 08:06:47;;;;;;;29.65;10.82;;;;;;;10.62;100.00;99930.22;6243621;28;20136;-79
2021/05/16 08:09:49;;;;;;;33.00;12.05;;;;;;;10.68;100.00;99928.16;6243753;28;20061;-80
2021/05/16 08:12:50;;;;;;;29.77;11.60;;;;;;;10.74;100.00;99927.75;6240017;28;20490;-79
2021/05/16 08:15:51;;;;;;;37.60;11.82;;;;;;;10.86;100.00;99927.78;6244410;28;20560;-79
2021/05/16 08:18:52;;;;;;;35.90;11.15;;;;;;;10.90;100.00;99928.38;6242013;28;20100;-79
2021/05/16 08:21:53;;;;;;;24.92;10.10;;;;;;;10.99;100.00;99926.91;6241374;28;20054;-79
2021/05/16 08:24:55;;;;;;;26.70;9.90;;;;;;;11.14;100.00;99923.25;6240893;28;20049;-79
2021/05/16 08:27:56;;;;;;;29.67;8.88;;;;;;;11.29;99.54;99923.97;6242486;28;20057;-79
2021/05/16 08:30:57;;;;;;;25.42;8.63;;;;;;;11.23;96.85;99935.78;6243867;28;20450;-79
2021/05/16 08:33:58;;;;;;;32.75;9.73;;;;;;;11.11;96.64;99926.09;6258400;28;20050;-79
2021/05/16 08:36:58;;;;;;;36.67;10.10;;;;;;;11.09;98.16;99935.88;6267738;28;20502;-78
2021/05/16 08:40:00;;;;;;;27.90;9.35;;;;;;;11.25;99.39;99920.72;6266711;28;20148;-79
2021/05/16 08:43:02;;;;;;;36.90;9.00;;;;;;;11.27;97.40;99933.78;6263753;28;20405;-79
2021/05/16 08:46:03;;;;;;;27.40;8.23;;;;;;;11.18;94.87;99941.34;6261133;28;20061;-78
2021/05/16 08:49:04;;;;;;;33.65;8.70;;;;;;;11.18;94.04;99941.34;6262114;28;20509;-79
2021/05/16 08:52:05;;;;;;;27.90;8.38;;;;;;;11.43;92.43;99934.38;6260946;28;20052;-78
2021/05/16 08:55:09;;;;;;;23.73;7.75;;;;;;;11.22;94.47;99930.59;6263187;28;20052;-79
2021/05/16 08:58:11;;;;;;;22.13;8.68;;;;;;;11.21;94.78;99934.19;6265434;28;20099;-79
2021/05/16 09:01:19;;;;;;;25.52;9.38;;;;;;;11.36;94.50;99931.34;6264864;28;20057;-79
2021/05/16 09:04:28;;;;;;;25.23;8.27;;;;;;;11.80;92.53;99923.88;6262647;28;20049;-78
2021/05/16 09:07:29;;;;;;;19.07;8.57;;;;;;;11.91;90.16;99927.47;6264598;28;20064;-78
2021/05/16 09:10:32;;;;;;;21.17;7.65;;;;;;;11.98;91.61;99934.91;6266440;28;20050;-78
2021/05/16 09:13:34;;;;;;;26.85;8.68;;;;;;;11.78;89.67;99931.88;6263830;28;20197;-79
2021/05/16 09:16:35;;;;;;;20.10;7.95;;;;;;;11.72;91.29;99934.97;6267498;28;20064;-78
2021/05/16 09:19:42;;;;;;;20.00;8.40;;;;;;;11.78;89.20;99925.78;6263593;28;20049;-79
2021/05/16 09:22:44;;;;;;;25.05;8.95;;;;;;;12.01;90.47;99926.78;6263775;28;20417;-78
2021/05/16 09:25:46;;;;;;;18.83;8.98;;;;;;;12.22;89.09;99929.66;6263909;28;20053;-79
2021/05/16 09:28:46;;;;;;;20.33;9.88;;;;;;;12.40;90.14;99934.44;6265492;28;20050;-78
2021/05/16 09:31:49;;;;;;;29.02;10.20;;;;;;;12.42;85.49;99931.66;6257237;28;20055;-79
2021/05/16 09:34:51;;;;;;;25.73;8.65;;;;;;;12.60;88.98;99930.28;6266960;28;20045;-78
2021/05/16 09:38:00;;;;;;;19.88;9.10;;;;;;;12.87;87.84;99929.19;6266270;28;20065;-79
2021/05/16 09:41:03;;;;;;;19.23;8.30;;;;;;;12.97;85.55;99934.59;6266469;28;20053;-79
2021/05/16 09:44:25;;;;;;;20.30;8.68;;;;;;;12.75;83.75;99920.38;6264282;28;20051;-77
2021/05/16 09:47:27;;;;;;;16.23;7.45;;;;;;;12.70;84.12;99933.91;6263353;28;20053;-79
2021/05/16 09:50:28;;;;;;;17.30;7.82;;;;;;;12.51;84.75;99932.78;6263491;28;20068;-80
2021/05/16 09:53:30;;;;;;;18.70;7.43;;;;;;;12.52;85.11;99923.91;6263485;28;20050;-77
2021/05/16 09:56:34;;;;;;;15.50;7.30;;;;;;;12.75;82.73;99919.56;6256795;28;20088;-77
2021/05/16 09:59:34;;;;;;;21.88;7.18;;;;;;;12.90;80.80;99924.50;6254592;28;20042;-77
2021/05/16 10:02:36;;;;;;;23.10;7.13;;;;;;;12.60;80.99;99932.09;6260027;28;20052;-78
2021/05/16 10:05:39;;;;;;;15.85;7.18;;;;;;;12.73;80.58;99921.47;6245101;28;20072;-79
2021/05/16 10:08:44;;;;;;;20.65;6.88;;;;;;;12.81;80.75;99917.31;6229656;28;20046;-78
2021/05/16 10:11:46;;;;;;;17.30;6.45;;;;;;;12.79;81.66;99915.72;6232772;28;20045;-79
2021/05/16 10:14:51;;;;;;;20.52;6.88;;;;;;;12.82;80.36;99912.88;6231229;28;20042;-78
2021/05/16 10:17:54;;;;;;;15.68;6.18;;;;;;;13.04;81.62;99917.34;6223041;28;20053;-78
2021/05/16 10:20:56;;;;;;;13.95;5.85;;;;;;;13.30;80.90;99917.97;6223027;28;20413;-77
2021/05/16 10:24:09;;;;;;;12.02;4.85;;;;;;;13.26;77.79;99916.53;6223500;28;20073;-75
2021/05/16 10:27:23;;;;;;;13.45;5.43;;;;;;;13.33;79.41;99905.38;6223691;28;20054;-76
2021/05/16 10:30:25;;;;;;;14.43;5.22;;;;;;;13.42;73.59;99906.47;6222966;28;20061;-76
2021/05/16 10:33:38;;;;;;;17.23;5.85;;;;;;;13.44;74.64;99908.03;6222362;28;20049;-76
2021/05/16 10:36:43;;;;;;;12.27;4.60;;;;;;;13.56;76.79;99902.75;6222853;28;20049;-76
2021/05/16 10:39:51;;;;;;;13.50;4.78;;;;;;;13.85;77.34;99893.34;6222816;28;20049;-77
2021/05/16 10:42:54;;;;;;;8.85;4.40;;;;;;;13.92;76.16;99894.50;6222512;28;20057;-77
2021/05/16 10:45:55;;;;;;;10.57;3.53;;;;;;;14.06;71.90;99890.75;6222302;28;20050;-77
2021/05/16 10:49:19;;;;;;;13.07;3.90;;;;;;;14.11;71.73;99890.38;6222783;28;20116;-76
2021/05/16 10:52:27;;;;;;;7.57;3.58;;;;;;;13.92;72.02;99891.88;6234374;28;20399;-76
2021/05/16 10:55:30;;;;;;;14.43;3.92;;;;;;;13.81;72.47;99902.47;6233054;28;20053;-76
2021/05/16 10:58:49;;;;;;;16.55;4.40;;;;;;;13.93;69.06;99882.97;6233048;28;20046;-75
2021/05/16 11:01:50;;;;;;;7.47;4.32;;;;;;;13.81;72.80;99886.63;6233105;28;20092;-76
2021/05/16 11:04:51;;;;;;;10.00;4.10;;;;;;;14.00;70.27;99887.78;6232643;28;20041;-76
2021/05/16 11:07:51;;;;;;;15.65;5.15;;;;;;;13.81;71.62;99883.16;6233412;28;20046;-76
2021/05/16 11:10:55;;;;;;;20.08;5.53;;;;;;;13.68;74.48;99888.56;6237699;28;20057;-76
2021/05/16 11:13:56;;;;;;;12.13;5.57;;;;;;;13.62;73.66;99875.84;6246269;28;20405;-76
2021/05/16 11:16:59;;;;;;;15.77;5.65;;;;;;;13.64;71.91;99881.84;6246465;28;20049;-77
2021/05/16 11:20:00;;;;;;;17.75;5.78;;;;;;;13.74;73.37;99880.16;6246624;28;20493;-76
2021/05/16 11:23:01;;;;;;;17.30;7.00;;;;;;;14.39;70.77;99873.06;6246238;28;20494;-76
2021/05/16 11:26:06;;;;;;;15.27;6.40;;;;;;;14.54;72.03;99863.91;6246534;28;20056;-76
2021/05/16 11:29:07;;;;;;;11.48;5.85;;;;;;;14.85;70.22;99871.88;6251405;28;20049;-76
2021/05/16 11:32:08;;;;;;;11.27;4.88;;;;;;;14.47;66.92;99865.34;6251318;28;20418;-76
2021/05/16 11:35:16;;;;;;;13.13;5.38;;;;;;;14.33;67.55;99865.66;6251219;28;20052;-76
2021/05/16 11:38:24;;;;;;;13.25;5.22;;;;;;;15.18;63.77;99857.56;6251472;28;20498;-76
2021/05/16 11:41:28;;;;;;;11.60;4.83;;;;;;;15.47;63.75;99857.66;6251194;28;20127;-76
2021/05/16 11:44:30;;;;;;;14.60;5.18;;;;;;;15.67;63.80;99854.13;6251074;28;20525;-75
2021/05/16 11:47:35;;;;;;;15.45;5.63;;;;;;;16.44;64.90;99845.38;6250980;28;20060;-75
2021/05/16 11:50:44;;;;;;;13.48;4.78;;;;;;;17.15;62.27;99852.06;6251312;28;20089;-76
2021/05/16 11:53:51;;;;;;;9.80;4.80;;;;;;;16.60;59.37;99847.44;6250832;28;20409;-76
2021/05/16 11:56:52;;;;;;;13.07;5.10;;;;;;;16.07;61.71;99847.06;6230207;28;20065;-75
2021/05/16 11:59:54;;;;;;;15.48;5.30;;;;;;;16.07;61.45;99861.13;6225931;28;20433;-77
2021/05/16 12:03:07;;;;;;;17.50;4.75;;;;;;;15.96;58.94;99845.38;6225798;28;20053;-76
2021/05/16 12:06:08;;;;;;;18.02;4.65;;;;;;;15.65;59.31;99850.78;6242947;23;20047;-77
2021/05/16 12:09:14;;;;;;;15.02;5.30;;;;;;;15.75;60.18;99844.66;6195169;28;20046;-77
2021/05/16 12:12:20;;;;;;;12.45;5.00;;;;;;;16.49;58.96;99848.44;6199498;28;20050;-77
2021/05/16 12:15:25;;;;;;;19.15;6.70;;;;;;;17.10;59.83;99841.88;6201900;28;20061;-78
2021/05/16 12:18:25;;;;;;;13.35;3.95;;;;;;;17.03;57.31;99842.59;6202380;28;20042;-78
2021/05/16 12:21:27;;;;;;;9.20;3.63;;;;;;;17.26;54.28;99846.56;6204828;28;20132;-78
2021/05/16 12:24:30;;;;;;;11.63;3.67;;;;;;;17.50;53.37;99852.19;6202416;28;20046;-77
2021/05/16 12:27:31;;;;;;;12.32;4.20;;;;;;;17.04;53.89;99842.47;6202914;28;20462;-77
2021/05/16 12:30:33;;;;;;;13.20;4.38;;;;;;;17.21;57.36;99844.38;6203057;28;20047;-78
2021/05/16 12:33:37;;;;;;;14.93;4.35;;;;;;;17.01;55.09;99844.56;6203171;28;20483;-78
2021/05/16 12:36:48;;;;;;;9.82;3.67;;;;;;;16.66;58.42;99833.59;6203217;28;20054;-78
2021/05/16 12:39:52;;;;;;;12.77;4.38;;;;;;;17.46;55.66;99834.84;6202480;28;20057;-78
2021/05/16 12:43:03;;;;;;;9.32;3.88;;;;;;;17.74;52.59;99830.38;6194262;28;20067;-78
2021/05/16 12:46:05;;;;;;;17.02;4.63;;;;;;;18.20;52.98;99832.97;6196417;28;20046;-78
2021/05/16 12:49:06;;;;;;;13.32;4.18;;;;;;;18.45;53.42;99834.00;6202753;28;20073;-79
2021/05/16 12:52:06;;;;;;;13.23;3.67;;;;;;;18.16;51.30;99826.28;6205136;28;20050;-78
2021/05/16 12:55:08;;;;;;;12.30;4.32;;;;;;;17.71;50.53;99835.13;6202417;28;20407;-78
2021/05/16 12:58:14;;;;;;;13.80;4.18;;;;;;;17.31;54.40;99833.69;6190980;28;20054;-78
2021/05/16 13:01:21;;;;;;;17.05;4.30;;;;;;;16.73;51.72;99840.03;6201821;28;20442;-79
2021/05/16 13:04:22;;;;;;;14.10;4.13;;;;;;;16.35;54.32;99837.41;6208015;28;20048;-79
2021/05/16 13:07:34;;;;;;;14.13;3.88;;;;;;;16.34;54.99;99835.75;6205108;28;20046;-79
2021/05/16 13:10:38;;;;;;;14.20;4.38;;;;;;;15.88;58.31;99845.22;6202069;28;20391;-79
2021/05/16 13:13:42;;;;;;;11.38;3.38;;;;;;;15.78;58.48;99839.94;6203662;28;20046;-78
2021/05/16 13:16:43;;;;;;;11.57;3.47;;;;;;;15.91;58.78;99837.03;6204070;28;20053;-79
2021/05/16 13:19:46;;;;;;;15.30;4.65;;;;;;;16.29;55.84;99836.16;6204381;28;20458;-79
2021/05/16 13:22:47;;;;;;;15.57;3.95;;;;;;;16.45;54.77;99835.59;6206323;28;20091;-79
2021/05/16 13:25:48;;;;;;;16.52;4.13;;;;;;;16.11;54.99;99835.19;6204224;28;20618;-79
2021/05/16 13:28:49;;;;;;;14.45;4.07;;;;;;;16.11;56.53;99832.56;6200421;28;20051;-77
2021/05/16 13:31:52;;;;;;;11.57;4.10;;;;;;;15.95;56.62;99830.47;6199741;28;20089;-75
2021/05/16 13:34:53;;;;;;;16.85;4.15;;;;;;;16.24;57.68;99833.09;6199620;28;20057;-75
2021/05/16 13:37:54;;;;;;;13.80;3.50;;;;;;;17.29;55.50;99825.03;6199152;28;20057;-76
2021/05/16 13:40:55;;;;;;;11.43;3.72;;;;;;;18.08;53.88;99832.38;6199771;28;20046;-76
2021/05/16 13:43:56;;;;;;;16.02;3.85;;;;;;;17.93;50.67;99826.72;6199320;28;20100;-75
2021/05/16 13:46:58;;;;;;;11.95;3.35;;;;;;;18.03;50.22;99826.66;6198539;28;20050;-74
2021/05/16 13:49:59;;;;;;;12.07;2.65;;;;;;;18.18;51.27;99819.81;6198589;28;20061;-74
2021/05/16 13:53:00;;;;;;;6.35;2.00;;;;;;;18.32;50.19;99815.78;6193179;28;20122;-76
2021/05/16 13:56:01;;;;;;;10.98;3.17;;;;;;;17.82;49.32;99823.47;6196077;28;20046;-77
2021/05/16 13:59:07;;;;;;;7.65;2.45;;;;;;;17.52;53.52;99817.47;6198303;28;20057;-77
2021/05/16 14:02:09;;;;;;;14.15;2.47;;;;;;;17.16;54.75;99820.03;6191086;28;20129;-77
2021/05/16 14:05:11;;;;;;;8.48;2.60;;;;;;;16.76;57.51;99820.38;6198673;28;20101;-77
2021/05/16 14:08:12;;;;;;;15.95;3.25;;;;;;;16.39;55.86;99821.06;6192940;28;20042;-77